Timeline UpdatesTrip UpdatesNews PostsPvt PostsTravel TipsAdmin PostsConv PostsFollowed PostsChat RequestsBlog PostsPNR Posts

Disclaimer
Search
 
 
Sat Aug 23, 2014 11:03:08 ISTHomeTrainsΣChainsAtlasPNRForumGalleryNewsFAQTripsMembersLoginFeedback
No Recent News for this Train
Other Trains in the News **new
Latest...
⇐ Return Journey: Train# 54256

54255/Varanasi Lucknow Passenger (UnReserved)

Sep 11 2013 (1:00PM)
Change Departure Station:
Change Arrival Station:
Post a Train Travel TipPost a Train Travel Tip **new
Post a Comment/Question/Picture/VideoPost a Comment/Question/Picture/Video
Pantry/Catering
???
RSA - Rake Sharing
Rake/Coach Composition
Loco
News    PNR    Forum    Time-Table    Availability    Fare Chart    Map    Arr/Dep History    Trips    Gallery    ΣChains    X/O    Timeline    
Travel Time: 1h 0m    5 halts    Distance: 44 km    Avg Speed: 44 km/hr
Type: Passenger
Zone: NR/Northern
Departs @ 05:40 (Avg 1h 22m late)
Platform# 8
SMTWTFS
Varanasi Junction/BSB 
Arrives @ 06:40 (Avg 1h 52m late)
Platform# ???
SMTWTFS
Bhadohi/BOY 

5 halts. 5 intermediate Stations between Varanasi Junction and Bhadohi

Show ALL intermediate Stations  Show Old Time-Table

#CodeStation NameX/OArrivesAvgDepartsAvgHaltPFDay#KmSpeedElevZoneAddress
1BSB»Varanasi Junction (9)»  -05:40+1:22810.02782mNRVaranasi 221002, Uttar Pradesh
2LOTLohta (3)  05:53+1:3305:54+1:381m--15.96080mNRLohta, Uttar Pradesh
3CHHChaukhandi  06:04+1:3606:05+1:381m--115.95084mNR221405, Uttar Pradesh
4SWPRSewapuri (2)X  06:13+1:4406:14+1:471m1122.54687mNRState Highway 87, Uttar Pradesh
5KEHKapseti (2)X  06:21+1:4906:22+1:541m--127.96385mNRState Highway 87, Uttar Pradesh
6PRFParsipur (2)  06:30+1:4606:31+1:511m--136.25587mNRSant Ravidas Nagar, Uttar Pradesh
7BOY•Bhadohi (2)•X  06:40+1:5206:41+1:561m--144.55490mNRUttar Pradesh 221401, Uttar Pradesh
8MOFMondh (2)  06:50+1:5806:51+2:031m--152.65491mNRUttar Pradesh 221406, Uttar Pradesh
9SAWSuriawan (2)X  06:59+2:0507:00+2:071m--159.96790mNR221404, Uttar Pradesh
10SQNSarai Kansrai (2)X  07:09+2:1107:10+2:131m--169.93892mNRGopalaha Marg, Uttar Pradesh
11JNHJanghai Junction (3)  07:18+2:1507:20+2:202m--174.94492mNRUttar Pradesh 212401, Uttar Pradesh
12NBPNibhapur (1)  07:31+2:1307:32+2:131m1182.96691mNRThakur Rd, Uttar Pradesh
13BSEBadshahpur (2)  07:40+2:2207:41+2:261m--191.75093mNRMungra Badshahpur, Uttar Pradesh
14SWSSuwansa (2)  07:49+2:2807:50+2:311m--198.342100mNRState Highway 36, Uttar Pradesh
15GRXGaura (2)  07:58+2:3207:59+2:371m--1103.96097mNRState Highway 36, Uttar Pradesh
16DNDDandupur (1)  08:09+2:3708:10+2:391m11113.95199mNRDelhupur, Uttar Pradesh
17PHVPirthiGanj (2)X  08:18+2:4108:19+2:541m--1120.71199mNRState Highway 36, Uttar Pradesh
18PBHPratapgarh Junction (3)X  09:00+2:4109:10+2:4810m21128.11797mNRPratapgarh, Uttar Pradesh
19CILChilbila Junction (5)  09:24+2:4209:25+2:391m--1132.08399mNRState Highway 9, Uttar Pradesh
20JGJJageshwarganj (1)  09:34+2:3809:35+2:411m11144.453101mNRPartapgarh, Uttar Pradesh
21ANTUAntu (2)X  09:44+2:4209:45+2:461m--1152.316101mNRDist. Pratapgarh, Uttar Pradesh
22SHJPSahajipur Halt (1)  09:51-09:52-1m11153.951102mNRSahajipur, Uttar Pradesh
23MFLMisrauli (1)  09:58+2:4609:59+2:491m11159.031100mNRGauriGanj, Uttar Pradesh
24AMEAmethi (2)  10:07+2:4610:08+2:541m--1163.145107mNRAmethi., Uttar Pradesh
25TLKHTalakhajuri (1)X  10:18+2:5810:19+3:021m11170.643112mNRAntu, Uttar Pradesh
26GNGGauriGanj (2)O  10:27+3:0310:28+3:131m--1176.456110mNRSH 34, Uttar Pradesh
27BANIBani (1)  10:37+3:1410:38+3:181m11184.754109mNRJais, Uttar Pradesh
28KCJKasimpur (1)  10:46-10:47-1m11192.030111mNRGauriGanj, Uttar Pradesh
29JAISJais (2)  10:52+3:1810:53+3:221m--1194.470108mNRRae Bareli, Uttar Pradesh
30FTGFursatGanj (2)  11:02+3:2411:03+3:301m--1205.069119mNRJais, Uttar Pradesh
31RUMRupamau (2)  11:11+3:3211:12+3:461m--1214.210118mNRGangaGanj, Uttar Pradesh
32RBLRae Bareli Junction (4)X  12:05+2:5412:15+2:5610m--1223.246116mNRRaebareli, Uttar Pradesh
33GANGGangaGanj (2)  12:25+3:0212:26+3:061m--1230.960118mNRBachhrawan, Uttar Pradesh
34HCPHarchandpur (3)X  12:33+3:1212:34+3:161m--1237.954118mNRRae Bareli, Uttar Pradesh
35KVGKundanganj (2)  12:41+3:1712:42+3:261m--1244.344119mNRHarchandpur, Uttar Pradesh
36BCNBachhrawan (2)  12:55+3:2212:57+3:272m--1253.843124mNRLucknow, Uttar Pradesh
37SAGRShrirajnagar (1)  13:05+3:2713:06+3:291m11259.545122mNRMohanlalGanj, Uttar Pradesh
38NHNNigohan (1)X  13:14+3:3113:15+3:331m11265.546120mNRLucknow, Uttar Pradesh
39KKAHKankaha (1)X  13:24+3:3313:25+3:351m11272.460125mNRBachhrawan, Uttar Pradesh
40MLJMohanlalGanj (1)  13:33+3:3713:34+3:401m11280.417124mNRMohanlalganj, Uttar Pradesh
41UTRUtraitia Junction (2)X  14:04+3:3314:05+3:211m--1288.921124mNRLucknow, Uttar Pradesh
42BHAWBlock Hut A  14:18+3:1814:19+3:181m--1293.415121mNRLucknow, Uttar Pradesh
43LKOLucknow Charbagh (9)  14:50+3:12---1301.1-123mNR226004, Uttar Pradesh
Scroll to Top
Scroll to Bottom